createdAt,value
2019-04-22T00:00:54.251Z,9.50
2019-04-22T00:03:34.991Z,8.10
2019-04-22T00:06:18.050Z,7.83
2019-04-22T00:08:57.706Z,6.20
2019-04-22T00:11:29.155Z,9.43
2019-04-22T00:14:01.271Z,8.80
2019-04-22T00:16:38.861Z,6.70
2019-04-22T00:21:40.390Z,10.10
2019-04-22T00:24:13.726Z,10.70
2019-04-22T00:26:45.641Z,10.90
2019-04-22T00:29:39.159Z,7.33
2019-04-22T00:32:05.283Z,11.47
2019-04-22T00:34:42.697Z,8.80
2019-04-22T00:37:17.587Z,9.80
2019-04-22T00:39:46.628Z,9.50
2019-04-22T00:42:24.019Z,13.60
2019-04-22T00:44:55.884Z,14.87
2019-04-22T00:47:29.134Z,13.13
2019-04-22T00:52:28.530Z,11.57
2019-04-22T00:55:06.065Z,9.20
2019-04-22T00:57:35.517Z,15.13
2019-04-22T01:00:05.449Z,13.10
2019-04-22T01:02:41.502Z,10.70
2019-04-22T01:05:16.601Z,10.90
2019-04-22T01:07:45.096Z,11.10
2019-04-22T01:10:23.639Z,12.10
2019-04-22T01:12:44.381Z,10.50
2019-04-22T01:15:23.661Z,13.50
2019-04-22T01:17:52.996Z,14.73
2019-04-22T01:20:45.700Z,12.27
2019-04-22T01:22:53.241Z,10.40
2019-04-22T01:25:23.363Z,13.93
2019-04-22T01:27:55.915Z,9.60
2019-04-22T01:30:21.046Z,7.97
2019-04-22T01:32:44.873Z,14.13
2019-04-22T01:35:26.365Z,10.87
2019-04-22T01:38:01.419Z,7.93
2019-04-22T01:40:45.724Z,10.40
2019-04-22T01:43:17.815Z,7.10
2019-04-22T01:45:47.680Z,14.50
2019-04-22T01:48:22.826Z,12.17
2019-04-22T01:50:49.975Z,8.33
2019-04-22T01:53:27.475Z,11.60
2019-04-22T01:55:58.994Z,8.27
2019-04-22T01:58:23.685Z,9.70
2019-04-22T02:01:01.484Z,10.77
2019-04-22T02:03:33.306Z,10.13
2019-04-22T02:06:07.170Z,7.00
2019-04-22T02:11:09.366Z,8.80
2019-04-22T02:13:42.836Z,12.13
2019-04-22T02:16:15.212Z,13.27
2019-04-22T02:18:50.287Z,10.13
2019-04-22T02:21:15.063Z,22.50
2019-04-22T02:23:54.085Z,11.73
2019-04-22T02:26:26.738Z,10.73
2019-04-22T02:29:15.025Z,11.17
2019-04-22T02:34:15.509Z,12.10
2019-04-22T02:36:35.944Z,13.50
2019-04-22T02:39:11.817Z,9.77
2019-04-22T02:44:26.501Z,10.20
2019-04-22T02:51:43.241Z,12.40
2019-04-22T02:54:45.069Z,13.63
2019-04-22T02:56:56.035Z,13.00
2019-04-22T03:01:54.264Z,11.25
2019-04-22T03:04:39.381Z,12.43
2019-04-22T03:06:55.392Z,16.10
2019-04-22T03:14:40.385Z,11.03
2019-04-22T03:17:17.008Z,13.50
2019-04-22T03:22:21.045Z,12.07
2019-04-22T03:27:30.016Z,11.63
2019-04-22T03:30:45.353Z,14.47
2019-04-22T03:33:06.338Z,13.73
2019-04-22T03:37:53.088Z,18.17
2019-04-22T03:40:30.811Z,16.07
2019-04-22T03:47:57.445Z,12.77
2019-04-22T03:58:11.033Z,12.50
2019-04-22T04:00:42.954Z,14.33
2019-04-22T04:03:28.619Z,9.43
2019-04-22T04:10:50.162Z,14.73
2019-04-22T04:13:33.876Z,17.73
2019-04-22T04:15:46.612Z,11.03
2019-04-22T04:18:26.545Z,11.97
2019-04-22T04:23:37.952Z,15.13
2019-04-22T04:26:09.425Z,10.30
2019-04-22T04:31:15.014Z,10.43
2019-04-22T04:33:38.786Z,16.00
2019-04-22T04:36:07.941Z,7.20
2019-04-22T04:38:46.150Z,9.43
2019-04-22T04:41:26.776Z,12.00
2019-04-22T04:43:52.575Z,10.83
2019-04-22T04:46:26.771Z,10.57
2019-04-22T04:51:43.896Z,6.73
2019-04-22T04:54:04.177Z,10.93
2019-04-22T04:56:40.336Z,10.50
2019-04-22T05:04:14.703Z,8.40
2019-04-22T05:06:43.006Z,16.07
2019-04-22T05:09:15.155Z,12.90
2019-04-22T05:12:03.543Z,13.10
2019-04-22T05:14:23.274Z,10.03
2019-04-22T05:19:15.493Z,16.63
2019-04-22T05:21:51.160Z,14.70
2019-04-22T05:24:22.868Z,9.27
2019-04-22T05:29:35.127Z,21.23
2019-04-22T05:32:13.295Z,9.00
2019-04-22T05:34:40.088Z,12.83
2019-04-22T05:37:01.289Z,11.77
2019-04-22T05:39:31.075Z,15.30
2019-04-22T05:42:10.504Z,15.10
2019-04-22T05:44:44.071Z,15.53
2019-04-22T05:47:08.361Z,14.47
2019-04-22T05:49:35.359Z,16.57
2019-04-22T05:52:17.413Z,14.03
2019-04-22T05:54:50.540Z,12.70
2019-04-22T05:57:21.440Z,10.67
2019-04-22T05:59:54.162Z,19.77
2019-04-22T06:02:32.515Z,15.83
2019-04-22T06:05:01.600Z,15.40
2019-04-22T06:07:26.579Z,17.83
2019-04-22T06:10:06.609Z,12.97
2019-04-22T06:12:26.790Z,23.60
2019-04-22T06:15:04.811Z,13.10
2019-04-22T06:17:38.023Z,17.73
2019-04-22T06:20:10.536Z,14.00
2019-04-22T06:22:50.374Z,21.95
2019-04-22T06:25:23.260Z,21.57
2019-04-22T06:27:49.593Z,15.73
2019-04-22T06:30:21.838Z,17.23
2019-04-22T06:32:53.417Z,25.50
2019-04-22T06:35:29.763Z,16.83
2019-04-22T06:43:06.127Z,20.87
2019-04-22T06:48:08.320Z,19.57
2019-04-22T06:53:09.283Z,21.43
2019-04-22T06:55:41.288Z,18.00
2019-04-22T06:58:15.095Z,24.17
2019-04-22T07:03:34.785Z,16.20
2019-04-22T07:05:52.432Z,20.23
2019-04-22T07:08:59.275Z,14.90
2019-04-22T07:10:50.678Z,17.37
2019-04-22T07:13:29.101Z,19.53
2019-04-22T07:15:57.468Z,12.53
2019-04-22T07:18:35.938Z,24.13
2019-04-22T07:21:02.769Z,15.30
2019-04-22T07:26:05.933Z,20.27
2019-04-22T07:28:37.531Z,18.87
2019-04-22T07:31:14.319Z,15.67
2019-04-22T07:33:42.467Z,16.47
2019-04-22T07:36:54.636Z,14.50
2019-04-22T07:38:42.763Z,18.97
2019-04-22T07:41:23.091Z,18.80
2019-04-22T07:46:26.604Z,18.23
2019-04-22T07:48:57.977Z,18.10
2019-04-22T07:51:36.364Z,18.03
2019-04-22T07:54:01.855Z,16.80
2019-04-22T07:56:36.810Z,18.23
2019-04-22T07:59:09.272Z,16.50
2019-04-22T08:01:36.624Z,19.27
2019-04-22T08:09:21.412Z,11.20
2019-04-22T08:11:53.932Z,11.53
2019-04-22T08:14:24.663Z,13.47
2019-04-22T08:17:00.709Z,31.00
2019-04-22T08:19:33.126Z,23.20
2019-04-22T08:22:05.995Z,15.60
2019-04-22T08:24:35.631Z,24.57
2019-04-22T08:27:04.587Z,20.40
2019-04-22T08:29:59.808Z,13.87
2019-04-22T08:32:22.429Z,15.60
2019-04-22T08:34:47.668Z,22.60
2019-04-22T08:40:01.927Z,13.97
2019-04-22T08:43:39.183Z,15.93
2019-04-22T08:45:09.385Z,10.73
2019-04-22T08:47:36.181Z,12.63
2019-04-22T08:50:12.059Z,16.00
2019-04-22T08:52:42.226Z,12.47
2019-04-22T08:55:12.939Z,11.20
2019-04-22T08:58:03.690Z,12.20
2019-04-22T09:00:15.365Z,22.90
2019-04-22T09:02:54.067Z,27.13
2019-04-22T09:05:37.417Z,22.00
2019-04-22T09:07:52.535Z,14.77
2019-04-22T09:10:24.377Z,17.83
2019-04-22T09:13:00.632Z,16.10
2019-04-22T09:15:31.009Z,20.10
2019-04-22T09:18:02.428Z,15.07
2019-04-22T09:23:09.246Z,21.93
2019-04-22T09:25:44.005Z,23.60
2019-04-22T09:28:20.431Z,24.27
2019-04-22T09:30:49.018Z,20.73
2019-04-22T09:33:20.422Z,18.17
2019-04-22T09:36:00.203Z,25.43
2019-04-22T09:38:34.688Z,18.97
2019-04-22T09:40:52.506Z,16.77
2019-04-22T09:43:33.609Z,17.27
2019-04-22T09:46:02.124Z,15.80
2019-04-22T09:48:38.940Z,30.03
2019-04-22T09:51:00.531Z,20.73
2019-04-22T09:53:43.456Z,16.30
2019-04-22T09:56:14.811Z,22.47
2019-04-22T09:58:44.622Z,18.47
2019-04-22T10:01:26.174Z,17.67
2019-04-22T10:06:30.929Z,21.23
2019-04-22T10:14:03.899Z,18.70
2019-04-22T10:16:31.185Z,22.10
2019-04-22T10:19:04.266Z,26.03
2019-04-22T10:21:40.514Z,23.97
2019-04-22T10:26:39.630Z,21.27
2019-04-22T10:29:10.725Z,17.53
2019-04-22T10:31:46.585Z,21.60
2019-04-22T10:34:00.169Z,35.77
2019-04-22T10:36:21.508Z,20.33
2019-04-22T10:38:52.532Z,24.90
2019-04-22T10:41:23.132Z,27.67
2019-04-22T10:43:54.980Z,46.53
2019-04-22T10:46:26.366Z,39.07
2019-04-22T10:48:57.966Z,41.83
2019-04-22T10:51:28.753Z,38.47
2019-04-22T10:53:59.719Z,48.63
2019-04-22T10:56:30.644Z,30.37
2019-04-22T10:59:02.488Z,29.40
2019-04-22T11:01:33.843Z,48.50
2019-04-22T11:04:04.412Z,27.33
2019-04-22T11:06:41.006Z,26.70
2019-04-22T11:09:08.574Z,26.67
2019-04-22T11:11:50.181Z,23.00
2019-04-22T11:14:14.764Z,20.73
2019-04-22T11:16:45.630Z,23.17
2019-04-22T11:19:17.190Z,26.70
2019-04-22T11:22:00.994Z,29.90
2019-04-22T11:24:20.984Z,33.93
2019-04-22T11:26:52.766Z,27.17
2019-04-22T11:29:23.738Z,33.97
2019-04-22T11:31:54.713Z,38.47
2019-04-22T11:34:26.821Z,32.60
2019-04-22T11:36:58.873Z,30.87
2019-04-22T11:39:34.131Z,34.90
2019-04-22T11:42:04.402Z,57.67
2019-04-22T11:44:37.111Z,26.97
2019-04-22T11:47:07.898Z,32.80
2019-04-22T11:49:39.622Z,27.40
2019-04-22T11:52:12.847Z,37.43
2019-04-22T11:54:43.242Z,49.77
2019-04-22T11:57:15.146Z,27.30
2019-04-22T11:59:46.863Z,36.20
2019-04-22T12:02:21.964Z,26.53
2019-04-22T12:04:52.259Z,35.70
2019-04-22T12:07:23.425Z,31.50
2019-04-22T12:09:53.858Z,33.70
2019-04-22T12:12:25.660Z,26.77
2019-04-22T12:17:20.019Z,26.80
2019-04-22T12:19:50.509Z,34.33
2019-04-22T12:22:20.956Z,24.50
2019-04-22T12:24:52.427Z,25.73
2019-04-22T12:27:24.375Z,43.67
2019-04-22T12:29:56.611Z,26.40
2019-04-22T12:32:27.405Z,25.90
2019-04-22T12:34:57.898Z,39.50
2019-04-22T12:37:34.383Z,31.60
2019-04-22T12:40:00.644Z,35.80
2019-04-22T12:42:31.283Z,27.00
2019-04-22T12:45:02.428Z,37.40
2019-04-22T12:47:33.708Z,41.87
2019-04-22T12:50:12.680Z,33.43
2019-04-22T12:52:43.722Z,33.57
2019-04-22T12:55:09.976Z,26.90
2019-04-22T12:57:40.895Z,27.43
2019-04-22T13:00:15.624Z,21.27
2019-04-22T13:02:47.299Z,27.37
2019-04-22T13:05:22.744Z,23.23
2019-04-22T13:07:53.706Z,22.37
2019-04-22T13:10:26.015Z,22.50
2019-04-22T13:12:57.017Z,27.20
2019-04-22T13:15:30.722Z,24.03
2019-04-22T13:18:11.755Z,21.23
2019-04-22T13:20:34.430Z,27.57
2019-04-22T13:23:05.144Z,28.63
2019-04-22T13:25:36.649Z,19.97
2019-04-22T13:28:07.399Z,36.33
2019-04-22T13:30:38.715Z,29.13
2019-04-22T13:33:10.538Z,33.47
2019-04-22T13:35:41.593Z,21.33
2019-04-22T13:38:12.973Z,24.73
2019-04-22T13:40:59.219Z,22.43
2019-04-22T13:43:16.757Z,30.17
2019-04-22T13:45:48.110Z,29.87
2019-04-22T13:48:41.790Z,27.73
2019-04-22T13:51:20.781Z,24.47
2019-04-22T13:54:14.047Z,25.10
2019-04-22T13:56:20.562Z,33.83
2019-04-22T13:58:39.530Z,32.60
2019-04-22T14:01:04.954Z,33.40
2019-04-22T14:03:54.436Z,38.93
2019-04-22T14:06:25.141Z,34.70
2019-04-22T14:08:56.173Z,38.23
2019-04-22T14:11:39.031Z,47.20
2019-04-22T14:13:58.715Z,37.23
2019-04-22T14:16:31.131Z,29.10
2019-04-22T14:19:02.128Z,22.33
2019-04-22T14:21:34.657Z,32.30
2019-04-22T14:24:07.048Z,45.77
2019-04-22T14:26:51.731Z,36.73
2019-04-22T14:29:09.654Z,27.17
2019-04-22T14:31:40.539Z,24.43
2019-04-22T14:34:13.787Z,21.70
2019-04-22T14:36:45.888Z,22.73
2019-04-22T14:39:17.692Z,20.73
2019-04-22T14:42:06.493Z,30.30
2019-04-22T14:45:16.921Z,20.27
2019-04-22T14:49:48.095Z,23.17
2019-04-22T14:52:24.700Z,22.07
2019-04-22T14:54:41.288Z,17.07
2019-04-22T14:57:05.181Z,18.20
2019-04-22T14:59:35.868Z,23.17
2019-04-22T15:02:07.609Z,25.00
2019-04-22T15:04:39.652Z,19.30
2019-04-22T15:07:10.745Z,55.30
2019-04-22T15:09:41.971Z,58.17
2019-04-22T15:12:20.653Z,51.70
2019-04-22T15:14:45.736Z,52.27
2019-04-22T15:17:24.953Z,52.30
2019-04-22T15:20:17.539Z,55.07
2019-04-22T15:22:48.420Z,56.10
2019-04-22T15:25:19.060Z,42.13
2019-04-22T15:27:51.076Z,33.50
2019-04-22T15:30:21.680Z,46.17
2019-04-22T15:32:53.578Z,50.80
2019-04-22T15:35:25.273Z,57.73
2019-04-22T15:37:57.192Z,60.57
2019-04-22T15:40:31.008Z,49.17
2019-04-22T15:43:02.657Z,47.30
2019-04-22T15:45:35.003Z,85.23
2019-04-22T15:48:06.162Z,72.63
2019-04-22T15:50:36.878Z,108.63
2019-04-22T15:53:07.730Z,123.73
2019-04-22T15:55:39.007Z,130.93
2019-04-22T15:58:10.156Z,138.33
2019-04-22T16:00:51.742Z,113.70
2019-04-22T16:03:14.296Z,144.40
2019-04-22T16:05:46.077Z,61.87
2019-04-22T16:08:17.146Z,60.50
2019-04-22T16:10:48.192Z,52.63
2019-04-22T16:13:24.392Z,60.40
2019-04-22T16:15:52.368Z,29.87
2019-04-22T16:18:24.406Z,36.77
2019-04-22T16:20:56.314Z,36.27
2019-04-22T16:23:38.458Z,24.50
2019-04-22T16:26:20.100Z,40.63
2019-04-22T16:28:53.970Z,36.27
2019-04-22T16:31:24.961Z,32.10
2019-04-22T16:33:56.359Z,34.57
2019-04-22T16:36:26.993Z,35.97
2019-04-22T16:38:57.729Z,32.10
2019-04-22T16:41:28.847Z,44.23
2019-04-22T16:44:04.560Z,23.93
2019-04-22T16:46:35.075Z,43.20
2019-04-22T16:49:05.947Z,33.10
2019-04-22T16:51:38.055Z,34.90
2019-04-22T16:54:11.673Z,41.50
2019-04-22T16:56:43.752Z,25.30
2019-04-22T16:59:14.975Z,29.03
2019-04-22T17:02:04.421Z,18.27
2019-04-22T17:04:57.743Z,24.93
2019-04-22T17:07:29.973Z,26.87
2019-04-22T17:10:01.919Z,26.77
2019-04-22T17:12:45.793Z,23.87
2019-04-22T17:15:10.147Z,27.83
2019-04-22T17:17:41.239Z,28.93
2019-04-22T17:20:13.278Z,34.07
2019-04-22T17:22:44.068Z,30.73
2019-04-22T17:25:16.189Z,24.90
2019-04-22T17:27:47.490Z,39.43
2019-04-22T17:30:18.483Z,22.50
2019-04-22T17:32:50.427Z,28.00
2019-04-22T17:35:22.085Z,29.13
2019-04-22T17:38:02.942Z,31.20
2019-04-22T17:40:43.873Z,19.23
2019-04-22T17:43:29.842Z,31.87
2019-04-22T17:46:15.066Z,22.00
2019-04-22T17:48:58.913Z,22.63
2019-04-22T17:51:36.327Z,25.10
2019-04-22T17:54:02.403Z,32.90
2019-04-22T17:56:37.518Z,23.33
2019-04-22T17:59:11.739Z,26.33
2019-04-22T18:01:38.285Z,15.77
2019-04-22T18:03:56.903Z,24.10
2019-04-22T18:06:48.917Z,37.83
2019-04-22T18:09:28.373Z,26.23
2019-04-22T18:11:50.933Z,25.20
2019-04-22T18:14:36.400Z,23.10
2019-04-22T18:16:52.123Z,22.77
2019-04-22T18:19:26.322Z,29.73
2019-04-22T18:21:54.826Z,19.83
2019-04-22T18:24:19.999Z,26.13
2019-04-22T18:27:18.550Z,20.30
2019-04-22T18:29:34.364Z,17.93
2019-04-22T18:31:58.065Z,26.60
2019-04-22T18:34:32.491Z,21.13
2019-04-22T18:37:11.772Z,22.43
2019-04-22T18:39:46.638Z,25.40
2019-04-22T18:42:16.047Z,23.97
2019-04-22T18:44:55.351Z,25.93
2019-04-22T18:47:18.554Z,20.90
2019-04-22T18:49:49.257Z,22.93
2019-04-22T18:53:07.028Z,15.77
2019-04-22T18:55:38.748Z,21.57
2019-04-22T18:58:09.061Z,31.07
2019-04-22T19:00:34.247Z,24.10
2019-04-22T19:03:13.219Z,15.33
2019-04-22T19:05:57.058Z,22.90
2019-04-22T19:08:31.664Z,22.70
2019-04-22T19:16:30.862Z,29.73
2019-04-22T19:18:41.545Z,23.63
2019-04-22T19:21:13.623Z,20.03
2019-04-22T19:23:45.167Z,20.53
2019-04-22T19:26:27.856Z,16.83
2019-04-22T19:28:49.686Z,17.77
2019-04-22T19:31:24.782Z,28.23
2019-04-22T19:33:56.191Z,30.23
2019-04-22T19:36:28.989Z,14.00
2019-04-22T19:38:52.611Z,18.73
2019-04-22T19:41:32.207Z,22.20
2019-04-22T19:44:05.506Z,12.77
2019-04-22T19:46:28.196Z,25.93
2019-04-22T19:49:10.559Z,21.03
2019-04-22T19:51:45.801Z,26.00
2019-04-22T19:54:07.835Z,13.20
2019-04-22T19:56:36.471Z,20.97
2019-04-22T19:59:12.098Z,21.20
2019-04-22T20:02:01.077Z,30.43
2019-04-22T20:05:21.998Z,29.40
2019-04-22T20:07:41.832Z,25.63
2019-04-22T20:10:22.464Z,20.87
2019-04-22T20:12:51.548Z,26.50
2019-04-22T20:15:21.009Z,23.47
2019-04-22T20:18:20.887Z,27.03
2019-04-22T20:20:34.363Z,17.30
2019-04-22T20:22:57.494Z,24.00
2019-04-22T20:25:30.650Z,24.23
2019-04-22T20:28:07.463Z,25.13
2019-04-22T20:30:39.956Z,41.30
2019-04-22T20:33:05.355Z,22.07
2019-04-22T20:35:46.594Z,18.90
2019-04-22T20:38:14.906Z,30.17
2019-04-22T20:40:42.711Z,22.17
2019-04-22T20:43:23.592Z,33.20
2019-04-22T20:45:51.152Z,26.97
2019-04-22T20:48:13.005Z,20.97
2019-04-22T20:50:54.872Z,29.67
2019-04-22T20:53:29.874Z,33.07
2019-04-22T20:56:00.722Z,28.97
2019-04-22T20:58:35.379Z,25.27
2019-04-22T21:00:55.646Z,25.07
2019-04-22T21:03:28.478Z,26.50
2019-04-22T21:06:05.955Z,29.13
2019-04-22T21:08:42.285Z,23.20
2019-04-22T21:11:12.734Z,23.97
2019-04-22T21:13:46.820Z,22.87
2019-04-22T21:16:23.753Z,24.83
2019-04-22T21:18:49.494Z,30.10
2019-04-22T21:21:28.126Z,18.23
2019-04-22T21:23:51.415Z,24.27
2019-04-22T21:26:24.137Z,30.87
2019-04-22T21:28:58.420Z,24.57
2019-04-22T21:31:33.536Z,30.63
2019-04-22T21:34:04.138Z,25.43
2019-04-22T21:36:43.153Z,57.00
2019-04-22T21:39:08.282Z,23.00
2019-04-22T21:41:44.746Z,21.60
2019-04-22T21:44:14.297Z,21.73
2019-04-22T21:46:51.073Z,26.23
2019-04-22T21:49:23.045Z,18.77
2019-04-22T21:51:54.062Z,22.60
2019-04-22T21:54:28.638Z,22.03
2019-04-22T21:57:14.028Z,21.63
2019-04-22T21:59:35.276Z,25.37
2019-04-22T22:02:16.183Z,20.30
2019-04-22T22:04:44.817Z,25.33
2019-04-22T22:07:09.697Z,24.20
2019-04-22T22:09:54.190Z,69.10
2019-04-22T22:12:24.648Z,93.20
2019-04-22T22:15:00.366Z,156.37
2019-04-22T22:17:33.369Z,183.50
2019-04-22T22:19:57.846Z,165.67
2019-04-22T22:22:45.531Z,92.97
2019-04-22T22:25:07.777Z,120.87
2019-04-22T22:27:35.422Z,124.30
2019-04-22T22:30:29.490Z,158.93
2019-04-22T22:32:49.814Z,159.50
2019-04-22T22:35:16.843Z,188.57
2019-04-22T22:37:50.601Z,229.33
2019-04-22T22:40:09.472Z,212.53
2019-04-22T22:42:38.756Z,219.23
2019-04-22T22:45:14.398Z,263.50
2019-04-22T22:48:07.707Z,257.30
2019-04-22T22:50:36.013Z,167.73
2019-04-22T22:53:18.968Z,168.70
2019-04-22T22:55:37.447Z,154.00
2019-04-22T22:58:14.195Z,146.20
2019-04-22T23:00:39.401Z,84.43
2019-04-22T23:03:36.441Z,89.97
2019-04-22T23:05:54.991Z,121.27
2019-04-22T23:08:26.207Z,93.37
2019-04-22T23:11:00.706Z,113.00
2019-04-22T23:13:33.515Z,111.20
2019-04-22T23:15:50.174Z,126.10
2019-04-22T23:18:10.195Z,102.87
2019-04-22T23:20:47.276Z,97.67
2019-04-22T23:23:33.410Z,108.97
2019-04-22T23:26:07.017Z,157.43
2019-04-22T23:28:50.853Z,44.40
2019-04-22T23:31:29.259Z,39.87
2019-04-22T23:34:07.912Z,36.73
2019-04-22T23:37:06.957Z,39.37
2019-04-22T23:39:49.927Z,34.90
2019-04-22T23:42:18.944Z,71.57
2019-04-22T23:44:50.115Z,89.23
2019-04-22T23:47:18.504Z,113.10
2019-04-22T23:49:56.087Z,133.87
2019-04-22T23:52:28.686Z,102.80
2019-04-22T23:55:08.812Z,79.03
2019-04-22T23:57:43.784Z,66.67
